sensor_id;sensor_type;location;lat;lon;timestamp;P1;durP1;ratioP1;P2;durP2;ratioP2
17943;SDS011;9097;47.028;15.444;2022-07-05T00:01:41;3.55;;;1.65;;
17943;SDS011;9097;47.028;15.444;2022-07-05T00:04:43;2.50;;;1.83;;
17943;SDS011;9097;47.028;15.444;2022-07-05T00:07:47;2.28;;;1.75;;
17943;SDS011;9097;47.028;15.444;2022-07-05T00:10:50;3.35;;;1.70;;
17943;SDS011;9097;47.028;15.444;2022-07-05T00:13:52;2.70;;;1.90;;
17943;SDS011;9097;47.028;15.444;2022-07-05T00:16:56;2.47;;;1.50;;
17943;SDS011;9097;47.028;15.444;2022-07-05T00:19:59;1.75;;;1.38;;
17943;SDS011;9097;47.028;15.444;2022-07-05T00:23:02;2.00;;;1.60;;
17943;SDS011;9097;47.028;15.444;2022-07-05T00:26:05;1.60;;;1.42;;
17943;SDS011;9097;47.028;15.444;2022-07-05T00:29:08;2.05;;;1.33;;
17943;SDS011;9097;47.028;15.444;2022-07-05T00:32:12;2.08;;;1.77;;
17943;SDS011;9097;47.028;15.444;2022-07-05T00:35:14;2.00;;;1.58;;
17943;SDS011;9097;47.028;15.444;2022-07-05T00:38:17;1.95;;;1.25;;
17943;SDS011;9097;47.028;15.444;2022-07-05T00:41:20;2.67;;;1.70;;
17943;SDS011;9097;47.028;15.444;2022-07-05T00:44:27;2.15;;;1.45;;
17943;SDS011;9097;47.028;15.444;2022-07-05T00:47:33;1.25;;;1.15;;
17943;SDS011;9097;47.028;15.444;2022-07-05T00:50:36;3.33;;;1.88;;
17943;SDS011;9097;47.028;15.444;2022-07-05T00:53:38;1.52;;;1.27;;
17943;SDS011;9097;47.028;15.444;2022-07-05T00:56:43;4.63;;;1.48;;
17943;SDS011;9097;47.028;15.444;2022-07-05T00:59:45;1.83;;;1.10;;
17943;SDS011;9097;47.028;15.444;2022-07-05T01:02:49;4.57;;;2.10;;
17943;SDS011;9097;47.028;15.444;2022-07-05T01:05:52;3.53;;;2.20;;
17943;SDS011;9097;47.028;15.444;2022-07-05T01:08:55;1.52;;;1.15;;
17943;SDS011;9097;47.028;15.444;2022-07-05T01:11:57;1.88;;;1.73;;
17943;SDS011;9097;47.028;15.444;2022-07-05T01:15:00;1.60;;;0.95;;
17943;SDS011;9097;47.028;15.444;2022-07-05T01:18:05;2.00;;;1.75;;
17943;SDS011;9097;47.028;15.444;2022-07-05T01:21:07;1.90;;;1.42;;
17943;SDS011;9097;47.028;15.444;2022-07-05T01:24:12;1.65;;;1.23;;
17943;SDS011;9097;47.028;15.444;2022-07-05T01:27:15;4.25;;;1.73;;
17943;SDS011;9097;47.028;15.444;2022-07-05T01:30:18;2.22;;;1.58;;
17943;SDS011;9097;47.028;15.444;2022-07-05T01:33:26;3.50;;;1.40;;
17943;SDS011;9097;47.028;15.444;2022-07-05T01:36:30;2.53;;;1.55;;
17943;SDS011;9097;47.028;15.444;2022-07-05T01:39:34;2.13;;;1.88;;
17943;SDS011;9097;47.028;15.444;2022-07-05T01:42:37;3.40;;;1.40;;
17943;SDS011;9097;47.028;15.444;2022-07-05T01:45:39;1.60;;;1.50;;
17943;SDS011;9097;47.028;15.444;2022-07-05T01:48:44;3.42;;;1.60;;
17943;SDS011;9097;47.028;15.444;2022-07-05T01:51:48;2.58;;;2.15;;
17943;SDS011;9097;47.028;15.444;2022-07-05T01:54:52;2.42;;;1.55;;
17943;SDS011;9097;47.028;15.444;2022-07-05T01:57:55;3.35;;;1.98;;
17943;SDS011;9097;47.028;15.444;2022-07-05T02:00:58;3.58;;;2.05;;
17943;SDS011;9097;47.028;15.444;2022-07-05T02:04:01;3.20;;;2.47;;
17943;SDS011;9097;47.028;15.444;2022-07-05T02:07:04;3.92;;;2.25;;
17943;SDS011;9097;47.028;15.444;2022-07-05T02:10:09;3.15;;;1.77;;
17943;SDS011;9097;47.028;15.444;2022-07-05T02:13:11;3.42;;;1.95;;
17943;SDS011;9097;47.028;15.444;2022-07-05T02:16:15;1.73;;;1.45;;
17943;SDS011;9097;47.028;15.444;2022-07-05T02:19:17;5.78;;;1.83;;
17943;SDS011;9097;47.028;15.444;2022-07-05T02:22:20;2.65;;;1.60;;
17943;SDS011;9097;47.028;15.444;2022-07-05T02:25:25;1.85;;;1.60;;
17943;SDS011;9097;47.028;15.444;2022-07-05T02:28:28;4.50;;;2.05;;
17943;SDS011;9097;47.028;15.444;2022-07-05T02:31:31;2.67;;;1.88;;
17943;SDS011;9097;47.028;15.444;2022-07-05T02:34:34;2.65;;;1.60;;
17943;SDS011;9097;47.028;15.444;2022-07-05T02:37:37;2.28;;;1.67;;
17943;SDS011;9097;47.028;15.444;2022-07-05T02:40:41;2.13;;;1.77;;
17943;SDS011;9097;47.028;15.444;2022-07-05T02:43:44;1.70;;;1.58;;
17943;SDS011;9097;47.028;15.444;2022-07-05T02:46:47;2.47;;;1.85;;
17943;SDS011;9097;47.028;15.444;2022-07-05T02:49:49;1.70;;;1.40;;
17943;SDS011;9097;47.028;15.444;2022-07-05T02:52:52;1.83;;;1.70;;
17943;SDS011;9097;47.028;15.444;2022-07-05T02:55:57;1.85;;;1.75;;
17943;SDS011;9097;47.028;15.444;2022-07-05T02:58:59;6.15;;;2.05;;
17943;SDS011;9097;47.028;15.444;2022-07-05T03:02:02;4.10;;;1.92;;
17943;SDS011;9097;47.028;15.444;2022-07-05T03:05:06;2.63;;;2.15;;
17943;SDS011;9097;47.028;15.444;2022-07-05T03:08:11;2.83;;;1.63;;
17943;SDS011;9097;47.028;15.444;2022-07-05T03:11:16;1.75;;;1.58;;
17943;SDS011;9097;47.028;15.444;2022-07-05T03:14:23;3.47;;;1.73;;
17943;SDS011;9097;47.028;15.444;2022-07-05T03:17:26;3.97;;;1.73;;
17943;SDS011;9097;47.028;15.444;2022-07-05T03:20:28;2.38;;;1.58;;
17943;SDS011;9097;47.028;15.444;2022-07-05T03:23:31;2.28;;;1.75;;
17943;SDS011;9097;47.028;15.444;2022-07-05T03:26:37;2.42;;;1.80;;
17943;SDS011;9097;47.028;15.444;2022-07-05T03:29:54;1.95;;;1.63;;
17943;SDS011;9097;47.028;15.444;2022-07-05T03:33:14;4.90;;;1.77;;
17943;SDS011;9097;47.028;15.444;2022-07-05T03:36:16;1.73;;;1.63;;
17943;SDS011;9097;47.028;15.444;2022-07-05T03:39:19;2.67;;;1.52;;
17943;SDS011;9097;47.028;15.444;2022-07-05T03:42:23;2.10;;;1.38;;
17943;SDS011;9097;47.028;15.444;2022-07-05T03:45:25;3.20;;;2.25;;
17943;SDS011;9097;47.028;15.444;2022-07-05T03:48:28;2.35;;;1.60;;
17943;SDS011;9097;47.028;15.444;2022-07-05T03:51:30;2.83;;;2.17;;
17943;SDS011;9097;47.028;15.444;2022-07-05T03:54:33;1.80;;;1.48;;
17943;SDS011;9097;47.028;15.444;2022-07-05T03:57:37;4.03;;;1.83;;
17943;SDS011;9097;47.028;15.444;2022-07-05T04:00:40;4.45;;;1.90;;
17943;SDS011;9097;47.028;15.444;2022-07-05T04:03:42;3.28;;;2.13;;
17943;SDS011;9097;47.028;15.444;2022-07-05T04:06:46;1.50;;;1.38;;
17943;SDS011;9097;47.028;15.444;2022-07-05T04:09:49;1.35;;;1.25;;
17943;SDS011;9097;47.028;15.444;2022-07-05T04:12:54;2.38;;;1.67;;
17943;SDS011;9097;47.028;15.444;2022-07-05T04:15:56;2.15;;;1.50;;
17943;SDS011;9097;47.028;15.444;2022-07-05T04:19:00;2.35;;;1.55;;
17943;SDS011;9097;47.028;15.444;2022-07-05T04:22:02;4.00;;;1.92;;
17943;SDS011;9097;47.028;15.444;2022-07-05T04:25:05;3.50;;;2.75;;
17943;SDS011;9097;47.028;15.444;2022-07-05T04:28:21;2.55;;;1.52;;
17943;SDS011;9097;47.028;15.444;2022-07-05T04:31:24;3.17;;;1.92;;
17943;SDS011;9097;47.028;15.444;2022-07-05T04:34:27;5.82;;;2.45;;
17943;SDS011;9097;47.028;15.444;2022-07-05T04:40:35;2.35;;;1.95;;
17943;SDS011;9097;47.028;15.444;2022-07-05T04:43:40;3.83;;;2.50;;
17943;SDS011;9097;47.028;15.444;2022-07-05T04:46:42;2.10;;;1.70;;
17943;SDS011;9097;47.028;15.444;2022-07-05T04:49:46;3.47;;;2.53;;
17943;SDS011;9097;47.028;15.444;2022-07-05T04:52:50;3.88;;;2.47;;
17943;SDS011;9097;47.028;15.444;2022-07-05T04:55:53;5.15;;;2.63;;
17943;SDS011;9097;47.028;15.444;2022-07-05T04:58:57;2.88;;;2.28;;
17943;SDS011;9097;47.028;15.444;2022-07-05T05:02:00;3.78;;;2.28;;
17943;SDS011;9097;47.028;15.444;2022-07-05T05:05:03;6.70;;;2.90;;
17943;SDS011;9097;47.028;15.444;2022-07-05T05:08:05;3.90;;;2.55;;
17943;SDS011;9097;47.028;15.444;2022-07-05T05:11:08;3.33;;;2.45;;
17943;SDS011;9097;47.028;15.444;2022-07-05T05:14:12;4.55;;;2.65;;
17943;SDS011;9097;47.028;15.444;2022-07-05T05:17:16;3.15;;;2.50;;
17943;SDS011;9097;47.028;15.444;2022-07-05T05:20:21;2.40;;;2.20;;
17943;SDS011;9097;47.028;15.444;2022-07-05T05:23:24;4.97;;;2.63;;
17943;SDS011;9097;47.028;15.444;2022-07-05T05:26:26;4.63;;;2.72;;
17943;SDS011;9097;47.028;15.444;2022-07-05T05:29:31;3.05;;;2.53;;
17943;SDS011;9097;47.028;15.444;2022-07-05T05:32:34;3.67;;;2.78;;
17943;SDS011;9097;47.028;15.444;2022-07-05T05:35:37;2.97;;;2.47;;
17943;SDS011;9097;47.028;15.444;2022-07-05T05:38:40;3.22;;;2.92;;
17943;SDS011;9097;47.028;15.444;2022-07-05T05:41:43;3.83;;;2.33;;
17943;SDS011;9097;47.028;15.444;2022-07-05T05:44:48;2.92;;;2.38;;
17943;SDS011;9097;47.028;15.444;2022-07-05T05:47:53;2.70;;;2.50;;
17943;SDS011;9097;47.028;15.444;2022-07-05T05:50:58;2.47;;;1.92;;
17943;SDS011;9097;47.028;15.444;2022-07-05T05:54:02;4.25;;;2.95;;
17943;SDS011;9097;47.028;15.444;2022-07-05T05:57:04;5.28;;;2.78;;
17943;SDS011;9097;47.028;15.444;2022-07-05T06:00:09;3.17;;;2.40;;
17943;SDS011;9097;47.028;15.444;2022-07-05T06:03:13;3.17;;;2.75;;
17943;SDS011;9097;47.028;15.444;2022-07-05T06:06:16;3.05;;;2.35;;
17943;SDS011;9097;47.028;15.444;2022-07-05T06:09:19;2.75;;;2.22;;
17943;SDS011;9097;47.028;15.444;2022-07-05T06:12:21;3.63;;;2.42;;
17943;SDS011;9097;47.028;15.444;2022-07-05T06:15:25;2.67;;;2.22;;
17943;SDS011;9097;47.028;15.444;2022-07-05T06:18:28;3.88;;;2.55;;
17943;SDS011;9097;47.028;15.444;2022-07-05T06:21:31;3.28;;;2.10;;
17943;SDS011;9097;47.028;15.444;2022-07-05T06:24:34;4.32;;;2.95;;
17943;SDS011;9097;47.028;15.444;2022-07-05T06:27:39;4.63;;;2.92;;
17943;SDS011;9097;47.028;15.444;2022-07-05T06:30:45;4.78;;;2.88;;
17943;SDS011;9097;47.028;15.444;2022-07-05T06:33:48;3.20;;;1.98;;
17943;SDS011;9097;47.028;15.444;2022-07-05T06:36:51;3.25;;;2.47;;
17943;SDS011;9097;47.028;15.444;2022-07-05T06:39:53;4.43;;;3.03;;
17943;SDS011;9097;47.028;15.444;2022-07-05T06:42:57;2.92;;;2.42;;
17943;SDS011;9097;47.028;15.444;2022-07-05T06:46:02;2.25;;;2.05;;
17943;SDS011;9097;47.028;15.444;2022-07-05T06:49:05;7.93;;;3.00;;
17943;SDS011;9097;47.028;15.444;2022-07-05T06:52:07;3.88;;;2.83;;
17943;SDS011;9097;47.028;15.444;2022-07-05T06:55:10;4.05;;;3.05;;
17943;SDS011;9097;47.028;15.444;2022-07-05T06:58:13;3.05;;;2.40;;
17943;SDS011;9097;47.028;15.444;2022-07-05T07:01:17;5.20;;;2.80;;
17943;SDS011;9097;47.028;15.444;2022-07-05T07:04:20;3.90;;;2.67;;
17943;SDS011;9097;47.028;15.444;2022-07-05T07:07:22;3.90;;;2.53;;
17943;SDS011;9097;47.028;15.444;2022-07-05T07:10:42;3.50;;;2.83;;
17943;SDS011;9097;47.028;15.444;2022-07-05T07:13:45;2.38;;;2.17;;
17943;SDS011;9097;47.028;15.444;2022-07-05T07:16:49;3.55;;;2.97;;
17943;SDS011;9097;47.028;15.444;2022-07-05T07:19:54;3.55;;;2.30;;
17943;SDS011;9097;47.028;15.444;2022-07-05T07:22:57;7.43;;;2.58;;
17943;SDS011;9097;47.028;15.444;2022-07-05T07:25:59;2.88;;;2.25;;
17943;SDS011;9097;47.028;15.444;2022-07-05T07:29:02;3.65;;;2.33;;
17943;SDS011;9097;47.028;15.444;2022-07-05T07:32:07;3.42;;;2.30;;
17943;SDS011;9097;47.028;15.444;2022-07-05T07:35:10;4.07;;;2.45;;
17943;SDS011;9097;47.028;15.444;2022-07-05T07:38:13;2.05;;;1.85;;
17943;SDS011;9097;47.028;15.444;2022-07-05T07:41:15;4.55;;;3.35;;
17943;SDS011;9097;47.028;15.444;2022-07-05T07:44:18;4.05;;;3.05;;
17943;SDS011;9097;47.028;15.444;2022-07-05T07:47:22;5.18;;;2.67;;
17943;SDS011;9097;47.028;15.444;2022-07-05T07:50:25;4.00;;;2.60;;
17943;SDS011;9097;47.028;15.444;2022-07-05T07:53:28;4.22;;;2.80;;
17943;SDS011;9097;47.028;15.444;2022-07-05T07:56:30;2.42;;;1.98;;
17943;SDS011;9097;47.028;15.444;2022-07-05T07:59:34;3.70;;;2.83;;
17943;SDS011;9097;47.028;15.444;2022-07-05T08:02:38;6.90;;;2.38;;
17943;SDS011;9097;47.028;15.444;2022-07-05T08:05:41;2.63;;;2.30;;
17943;SDS011;9097;47.028;15.444;2022-07-05T08:08:43;5.30;;;2.45;;
17943;SDS011;9097;47.028;15.444;2022-07-05T08:11:47;3.90;;;2.60;;
17943;SDS011;9097;47.028;15.444;2022-07-05T08:14:52;3.33;;;1.90;;
17943;SDS011;9097;47.028;15.444;2022-07-05T08:17:56;3.25;;;2.17;;
17943;SDS011;9097;47.028;15.444;2022-07-05T08:21:15;2.97;;;2.45;;
17943;SDS011;9097;47.028;15.444;2022-07-05T08:24:35;2.42;;;1.73;;
17943;SDS011;9097;47.028;15.444;2022-07-05T08:27:39;3.00;;;2.35;;
17943;SDS011;9097;47.028;15.444;2022-07-05T08:30:42;2.65;;;1.80;;
17943;SDS011;9097;47.028;15.444;2022-07-05T08:33:46;2.22;;;1.70;;
17943;SDS011;9097;47.028;15.444;2022-07-05T08:36:48;3.70;;;1.85;;
17943;SDS011;9097;47.028;15.444;2022-07-05T08:39:51;3.03;;;2.13;;
17943;SDS011;9097;47.028;15.444;2022-07-05T08:42:54;4.38;;;1.85;;
17943;SDS011;9097;47.028;15.444;2022-07-05T08:45:59;3.05;;;2.03;;
17943;SDS011;9097;47.028;15.444;2022-07-05T08:49:04;2.17;;;1.70;;
17943;SDS011;9097;47.028;15.444;2022-07-05T08:52:09;2.53;;;1.77;;
17943;SDS011;9097;47.028;15.444;2022-07-05T08:55:13;1.58;;;1.35;;
17943;SDS011;9097;47.028;15.444;2022-07-05T08:58:16;1.50;;;1.40;;
17943;SDS011;9097;47.028;15.444;2022-07-05T09:01:18;7.50;;;2.03;;
17943;SDS011;9097;47.028;15.444;2022-07-05T09:04:22;1.70;;;1.40;;
17943;SDS011;9097;47.028;15.444;2022-07-05T09:07:26;1.08;;;1.02;;
17943;SDS011;9097;47.028;15.444;2022-07-05T09:10:32;1.00;;;0.90;;
17943;SDS011;9097;47.028;15.444;2022-07-05T09:13:36;0.82;;;0.80;;
17943;SDS011;9097;47.028;15.444;2022-07-05T09:16:38;1.10;;;1.00;;
17943;SDS011;9097;47.028;15.444;2022-07-05T09:19:43;0.75;;;0.75;;
17943;SDS011;9097;47.028;15.444;2022-07-05T09:22:53;1.85;;;0.63;;
17943;SDS011;9097;47.028;15.444;2022-07-05T09:26:01;0.70;;;0.70;;
17943;SDS011;9097;47.028;15.444;2022-07-05T09:29:04;0.90;;;0.80;;
17943;SDS011;9097;47.028;15.444;2022-07-05T09:32:09;0.93;;;0.63;;
17943;SDS011;9097;47.028;15.444;2022-07-05T09:35:26;0.93;;;0.60;;
17943;SDS011;9097;47.028;15.444;2022-07-05T09:38:29;1.10;;;0.80;;
17943;SDS011;9097;47.028;15.444;2022-07-05T09:41:32;0.70;;;0.70;;
17943;SDS011;9097;47.028;15.444;2022-07-05T09:44:35;0.95;;;0.68;;
17943;SDS011;9097;47.028;15.444;2022-07-05T09:47:38;1.08;;;0.63;;
17943;SDS011;9097;47.028;15.444;2022-07-05T09:50:42;0.90;;;0.40;;
17943;SDS011;9097;47.028;15.444;2022-07-05T09:53:45;0.47;;;0.47;;
17943;SDS011;9097;47.028;15.444;2022-07-05T09:56:48;0.93;;;0.73;;
17943;SDS011;9097;47.028;15.444;2022-07-05T09:59:57;0.68;;;0.60;;
17943;SDS011;9097;47.028;15.444;2022-07-05T10:03:01;0.60;;;0.60;;
17943;SDS011;9097;47.028;15.444;2022-07-05T10:06:10;0.60;;;0.60;;
17943;SDS011;9097;47.028;15.444;2022-07-05T10:09:13;0.45;;;0.45;;
17943;SDS011;9097;47.028;15.444;2022-07-05T10:12:17;0.45;;;0.45;;
17943;SDS011;9097;47.028;15.444;2022-07-05T10:15:20;1.05;;;0.50;;
17943;SDS011;9097;47.028;15.444;2022-07-05T10:18:24;0.77;;;0.70;;
17943;SDS011;9097;47.028;15.444;2022-07-05T10:21:34;0.80;;;0.55;;
17943;SDS011;9097;47.028;15.444;2022-07-05T10:24:37;0.55;;;0.55;;
17943;SDS011;9097;47.028;15.444;2022-07-05T10:27:39;1.02;;;0.50;;
17943;SDS011;9097;47.028;15.444;2022-07-05T10:30:43;0.50;;;0.50;;
17943;SDS011;9097;47.028;15.444;2022-07-05T10:33:47;0.30;;;0.30;;
17943;SDS011;9097;47.028;15.444;2022-07-05T10:36:52;0.43;;;0.40;;
17943;SDS011;9097;47.028;15.444;2022-07-05T10:39:55;1.02;;;0.50;;
17943;SDS011;9097;47.028;15.444;2022-07-05T10:42:59;1.65;;;0.40;;
17943;SDS011;9097;47.028;15.444;2022-07-05T10:46:05;0.38;;;0.30;;
17943;SDS011;9097;47.028;15.444;2022-07-05T10:49:12;0.32;;;0.32;;
17943;SDS011;9097;47.028;15.444;2022-07-05T10:52:24;0.50;;;0.45;;
17943;SDS011;9097;47.028;15.444;2022-07-05T10:55:27;0.40;;;0.40;;
17943;SDS011;9097;47.028;15.444;2022-07-05T10:58:31;0.08;;;0.08;;
17943;SDS011;9097;47.028;15.444;2022-07-05T11:01:35;0.40;;;0.40;;
17943;SDS011;9097;47.028;15.444;2022-07-05T11:04:39;0.40;;;0.35;;
17943;SDS011;9097;47.028;15.444;2022-07-05T11:08:00;0.35;;;0.35;;
17943;SDS011;9097;47.028;15.444;2022-07-05T11:11:09;0.10;;;0.10;;
17943;SDS011;9097;47.028;15.444;2022-07-05T11:14:31;0.32;;;0.30;;
17943;SDS011;9097;47.028;15.444;2022-07-05T11:17:34;0.32;;;0.32;;
17943;SDS011;9097;47.028;15.444;2022-07-05T11:20:37;0.60;;;0.60;;
17943;SDS011;9097;47.028;15.444;2022-07-05T11:23:42;0.22;;;0.20;;
17943;SDS011;9097;47.028;15.444;2022-07-05T11:26:44;0.30;;;0.20;;
17943;SDS011;9097;47.028;15.444;2022-07-05T11:29:47;0.85;;;0.43;;
17943;SDS011;9097;47.028;15.444;2022-07-05T11:32:50;0.20;;;0.20;;
17943;SDS011;9097;47.028;15.444;2022-07-05T11:35:53;0.15;;;0.15;;
17943;SDS011;9097;47.028;15.444;2022-07-05T11:39:10;0.30;;;0.30;;
17943;SDS011;9097;47.028;15.444;2022-07-05T11:42:19;0.50;;;0.20;;
17943;SDS011;9097;47.028;15.444;2022-07-05T11:45:22;0.70;;;0.40;;
17943;SDS011;9097;47.028;15.444;2022-07-05T11:48:27;0.17;;;0.10;;
17943;SDS011;9097;47.028;15.444;2022-07-05T11:51:30;0.28;;;0.28;;
17943;SDS011;9097;47.028;15.444;2022-07-05T11:54:34;0.10;;;0.10;;
17943;SDS011;9097;47.028;15.444;2022-07-05T11:57:37;0.20;;;0.20;;
17943;SDS011;9097;47.028;15.444;2022-07-05T12:00:53;0.22;;;0.22;;
17943;SDS011;9097;47.028;15.444;2022-07-05T12:03:58;0.25;;;0.25;;
17943;SDS011;9097;47.028;15.444;2022-07-05T12:07:00;0.32;;;0.32;;
17943;SDS011;9097;47.028;15.444;2022-07-05T12:10:05;0.30;;;0.25;;
17943;SDS011;9097;47.028;15.444;2022-07-05T12:13:25;0.20;;;0.20;;
17943;SDS011;9097;47.028;15.444;2022-07-05T12:16:29;0.52;;;0.30;;
17943;SDS011;9097;47.028;15.444;2022-07-05T12:19:31;0.40;;;0.25;;
17943;SDS011;9097;47.028;15.444;2022-07-05T12:22:34;0.68;;;0.20;;
17943;SDS011;9097;47.028;15.444;2022-07-05T12:25:40;0.17;;;0.17;;
17943;SDS011;9097;47.028;15.444;2022-07-05T12:28:43;0.52;;;0.30;;
17943;SDS011;9097;47.028;15.444;2022-07-05T12:31:58;0.47;;;0.30;;
17943;SDS011;9097;47.028;15.444;2022-07-05T12:35:02;0.40;;;0.30;;
17943;SDS011;9097;47.028;15.444;2022-07-05T12:38:05;0.68;;;0.20;;
17943;SDS011;9097;47.028;15.444;2022-07-05T12:41:10;0.68;;;0.60;;
17943;SDS011;9097;47.028;15.444;2022-07-05T12:44:21;0.60;;;0.32;;
17943;SDS011;9097;47.028;15.444;2022-07-05T12:47:24;0.32;;;0.30;;
17943;SDS011;9097;47.028;15.444;2022-07-05T12:50:27;0.50;;;0.43;;
17943;SDS011;9097;47.028;15.444;2022-07-05T12:53:31;0.85;;;0.57;;
17943;SDS011;9097;47.028;15.444;2022-07-05T12:56:54;0.40;;;0.32;;
17943;SDS011;9097;47.028;15.444;2022-07-05T13:00:14;0.30;;;0.30;;
17943;SDS011;9097;47.028;15.444;2022-07-05T13:03:18;0.32;;;0.30;;
17943;SDS011;9097;47.028;15.444;2022-07-05T13:06:21;0.40;;;0.40;;
17943;SDS011;9097;47.028;15.444;2022-07-05T13:09:30;0.68;;;0.47;;
17943;SDS011;9097;47.028;15.444;2022-07-05T13:12:34;1.48;;;0.68;;
17943;SDS011;9097;47.028;15.444;2022-07-05T13:15:39;0.65;;;0.65;;
17943;SDS011;9097;47.028;15.444;2022-07-05T13:18:46;0.80;;;0.50;;
17943;SDS011;9097;47.028;15.444;2022-07-05T13:21:48;0.35;;;0.35;;
17943;SDS011;9097;47.028;15.444;2022-07-05T13:24:51;1.77;;;0.75;;
17943;SDS011;9097;47.028;15.444;2022-07-05T13:27:57;0.45;;;0.45;;
17943;SDS011;9097;47.028;15.444;2022-07-05T13:30:59;0.60;;;0.60;;
17943;SDS011;9097;47.028;15.444;2022-07-05T13:34:02;0.73;;;0.73;;
17943;SDS011;9097;47.028;15.444;2022-07-05T13:37:06;3.92;;;1.33;;
17943;SDS011;9097;47.028;15.444;2022-07-05T13:40:14;0.60;;;0.60;;
17943;SDS011;9097;47.028;15.444;2022-07-05T13:43:22;0.60;;;0.57;;
17943;SDS011;9097;47.028;15.444;2022-07-05T13:46:32;1.00;;;0.93;;
17943;SDS011;9097;47.028;15.444;2022-07-05T13:49:34;0.73;;;0.73;;
17943;SDS011;9097;47.028;15.444;2022-07-05T13:52:41;1.50;;;1.17;;
17943;SDS011;9097;47.028;15.444;2022-07-05T13:55:43;1.05;;;1.00;;
17943;SDS011;9097;47.028;15.444;2022-07-05T13:58:47;1.00;;;0.73;;
17943;SDS011;9097;47.028;15.444;2022-07-05T14:01:50;0.68;;;0.68;;
17943;SDS011;9097;47.028;15.444;2022-07-05T14:04:54;1.48;;;0.88;;
17943;SDS011;9097;47.028;15.444;2022-07-05T14:07:57;1.75;;;0.90;;
17943;SDS011;9097;47.028;15.444;2022-07-05T14:10:59;2.95;;;0.77;;
17943;SDS011;9097;47.028;15.444;2022-07-05T14:14:06;0.75;;;0.75;;
17943;SDS011;9097;47.028;15.444;2022-07-05T14:17:10;1.48;;;0.90;;
17943;SDS011;9097;47.028;15.444;2022-07-05T14:20:13;1.13;;;1.00;;
17943;SDS011;9097;47.028;15.444;2022-07-05T14:23:16;1.08;;;0.98;;
17943;SDS011;9097;47.028;15.444;2022-07-05T14:26:19;1.38;;;0.88;;
17943;SDS011;9097;47.028;15.444;2022-07-05T14:29:23;1.38;;;0.90;;
17943;SDS011;9097;47.028;15.444;2022-07-05T14:32:26;1.08;;;0.98;;
17943;SDS011;9097;47.028;15.444;2022-07-05T14:35:29;1.10;;;1.00;;
17943;SDS011;9097;47.028;15.444;2022-07-05T14:38:32;3.15;;;1.33;;
17943;SDS011;9097;47.028;15.444;2022-07-05T14:41:39;3.00;;;1.25;;
17943;SDS011;9097;47.028;15.444;2022-07-05T14:44:46;1.02;;;1.00;;
17943;SDS011;9097;47.028;15.444;2022-07-05T14:47:49;2.42;;;0.80;;
17943;SDS011;9097;47.028;15.444;2022-07-05T14:50:53;1.00;;;0.90;;
17943;SDS011;9097;47.028;15.444;2022-07-05T14:53:55;1.05;;;0.93;;
17943;SDS011;9097;47.028;15.444;2022-07-05T14:56:58;1.15;;;0.73;;
17943;SDS011;9097;47.028;15.444;2022-07-05T15:00:03;1.35;;;1.02;;
17943;SDS011;9097;47.028;15.444;2022-07-05T15:03:07;1.10;;;1.00;;
17943;SDS011;9097;47.028;15.444;2022-07-05T15:06:10;0.90;;;0.80;;
17943;SDS011;9097;47.028;15.444;2022-07-05T15:09:13;1.05;;;0.93;;
17943;SDS011;9097;47.028;15.444;2022-07-05T15:12:17;1.08;;;0.98;;
17943;SDS011;9097;47.028;15.444;2022-07-05T15:15:21;1.30;;;0.98;;
17943;SDS011;9097;47.028;15.444;2022-07-05T15:18:24;1.35;;;1.10;;
17943;SDS011;9097;47.028;15.444;2022-07-05T15:21:27;1.20;;;1.10;;
17943;SDS011;9097;47.028;15.444;2022-07-05T15:24:30;1.98;;;0.70;;
17943;SDS011;9097;47.028;15.444;2022-07-05T15:27:33;1.27;;;0.95;;
17943;SDS011;9097;47.028;15.444;2022-07-05T15:30:38;1.27;;;1.00;;
17943;SDS011;9097;47.028;15.444;2022-07-05T15:33:40;1.17;;;1.10;;
17943;SDS011;9097;47.028;15.444;2022-07-05T15:36:43;1.45;;;1.25;;
17943;SDS011;9097;47.028;15.444;2022-07-05T15:39:45;1.10;;;1.00;;
17943;SDS011;9097;47.028;15.444;2022-07-05T15:42:48;1.52;;;1.15;;
17943;SDS011;9097;47.028;15.444;2022-07-05T15:45:52;0.90;;;0.90;;
17943;SDS011;9097;47.028;15.444;2022-07-05T15:48:54;1.20;;;1.10;;
17943;SDS011;9097;47.028;15.444;2022-07-05T15:51:58;0.82;;;0.70;;
17943;SDS011;9097;47.028;15.444;2022-07-05T15:55:01;0.77;;;0.77;;
17943;SDS011;9097;47.028;15.444;2022-07-05T15:58:03;0.95;;;0.85;;
17943;SDS011;9097;47.028;15.444;2022-07-05T16:01:07;1.10;;;0.70;;
17943;SDS011;9097;47.028;15.444;2022-07-05T16:04:09;1.33;;;1.13;;
17943;SDS011;9097;47.028;15.444;2022-07-05T16:07:12;0.63;;;0.63;;
17943;SDS011;9097;47.028;15.444;2022-07-05T16:10:15;0.60;;;0.60;;
17943;SDS011;9097;47.028;15.444;2022-07-05T16:13:19;0.98;;;0.90;;
17943;SDS011;9097;47.028;15.444;2022-07-05T16:16:23;0.85;;;0.80;;
17943;SDS011;9097;47.028;15.444;2022-07-05T16:19:26;0.60;;;0.60;;
17943;SDS011;9097;47.028;15.444;2022-07-05T16:22:29;0.90;;;0.70;;
17943;SDS011;9097;47.028;15.444;2022-07-05T16:25:32;1.13;;;0.73;;
17943;SDS011;9097;47.028;15.444;2022-07-05T16:28:34;0.70;;;0.70;;
17943;SDS011;9097;47.028;15.444;2022-07-05T16:31:40;0.60;;;0.60;;
17943;SDS011;9097;47.028;15.444;2022-07-05T16:34:42;0.90;;;0.90;;
17943;SDS011;9097;47.028;15.444;2022-07-05T16:37:45;1.48;;;1.02;;
17943;SDS011;9097;47.028;15.444;2022-07-05T16:40:47;1.00;;;0.95;;
17943;SDS011;9097;47.028;15.444;2022-07-05T16:43:50;0.50;;;0.50;;
17943;SDS011;9097;47.028;15.444;2022-07-05T16:47:06;2.67;;;0.73;;
17943;SDS011;9097;47.028;15.444;2022-07-05T16:50:14;0.68;;;0.68;;
17943;SDS011;9097;47.028;15.444;2022-07-05T16:53:17;1.38;;;1.27;;
17943;SDS011;9097;47.028;15.444;2022-07-05T16:56:19;0.98;;;0.88;;
17943;SDS011;9097;47.028;15.444;2022-07-05T16:59:24;0.60;;;0.60;;
17943;SDS011;9097;47.028;15.444;2022-07-05T17:02:27;1.05;;;0.90;;
17943;SDS011;9097;47.028;15.444;2022-07-05T17:05:30;1.08;;;0.95;;
17943;SDS011;9097;47.028;15.444;2022-07-05T17:08:34;0.90;;;0.88;;
17943;SDS011;9097;47.028;15.444;2022-07-05T17:11:42;1.08;;;0.93;;
17943;SDS011;9097;47.028;15.444;2022-07-05T17:14:45;0.80;;;0.80;;
17943;SDS011;9097;47.028;15.444;2022-07-05T17:17:50;0.50;;;0.50;;
17943;SDS011;9097;47.028;15.444;2022-07-05T17:20:53;1.63;;;0.80;;
17943;SDS011;9097;47.028;15.444;2022-07-05T17:23:55;1.13;;;0.93;;
17943;SDS011;9097;47.028;15.444;2022-07-05T17:26:59;1.17;;;0.90;;
17943;SDS011;9097;47.028;15.444;2022-07-05T17:30:02;1.45;;;1.00;;
17943;SDS011;9097;47.028;15.444;2022-07-05T17:33:09;1.10;;;1.00;;
17943;SDS011;9097;47.028;15.444;2022-07-05T17:36:12;1.00;;;0.90;;
17943;SDS011;9097;47.028;15.444;2022-07-05T17:39:15;1.40;;;1.13;;
17943;SDS011;9097;47.028;15.444;2022-07-05T17:42:18;1.65;;;1.30;;
17943;SDS011;9097;47.028;15.444;2022-07-05T17:45:20;1.30;;;1.20;;
17943;SDS011;9097;47.028;15.444;2022-07-05T17:48:24;1.65;;;1.20;;
17943;SDS011;9097;47.028;15.444;2022-07-05T17:51:27;2.65;;;1.80;;
17943;SDS011;9097;47.028;15.444;2022-07-05T17:54:29;4.32;;;1.23;;
17943;SDS011;9097;47.028;15.444;2022-07-05T17:57:32;2.80;;;1.80;;
17943;SDS011;9097;47.028;15.444;2022-07-05T18:00:34;1.65;;;1.45;;
17943;SDS011;9097;47.028;15.444;2022-07-05T18:03:38;1.40;;;1.30;;
17943;SDS011;9097;47.028;15.444;2022-07-05T18:06:41;1.88;;;1.38;;
17943;SDS011;9097;47.028;15.444;2022-07-05T18:09:43;1.00;;;0.90;;
17943;SDS011;9097;47.028;15.444;2022-07-05T18:12:46;1.50;;;1.40;;
17943;SDS011;9097;47.028;15.444;2022-07-05T18:15:50;3.00;;;1.30;;
17943;SDS011;9097;47.028;15.444;2022-07-05T18:18:55;2.15;;;1.35;;
17943;SDS011;9097;47.028;15.444;2022-07-05T18:25:58;1.65;;;1.55;;
17943;SDS011;9097;47.028;15.444;2022-07-05T18:29:01;3.63;;;1.17;;
17943;SDS011;9097;47.028;15.444;2022-07-05T18:32:05;1.63;;;1.40;;
17943;SDS011;9097;47.028;15.444;2022-07-05T18:35:10;1.60;;;1.35;;
17943;SDS011;9097;47.028;15.444;2022-07-05T18:38:13;1.73;;;1.40;;